This is the latest recevied weather packets stored in our database for station/object DB0NLS-15. If no packets are shown the sender has not sent any weather packets the latest 1 day(s).
| Time | Temp. | Humidity | Pressure | Rain* | Wind** | Luminosity | Snow |
|---|---|---|---|---|---|---|---|
| 1777987257 | 19.44° C | 60% | 996.5 hPa | 0 mm | 1.79 m/s, 333° | - | - |
| 1777986654 | 19.44° C | 59% | 996.5 hPa | 0 mm | 1.34 m/s, 357° | - | - |
| 1777986051 | 20° C | 59% | 996.6 hPa | 0 mm | 1.79 m/s, 349° | - | - |
| 1777985449 | 20° C | 60% | 996.9 hPa | 0 mm | 0.89 m/s, 0° | - | - |
| 1777984846 | 19.44° C | 64% | 996.8 hPa | 0 mm | 1.79 m/s, 330° | - | - |
| 1777984243 | 18.89° C | 65% | 997 hPa | 0 mm | 1.79 m/s, 331° | - | - |
| 1777983640 | 18.33° C | 66% | 997 hPa | 0 mm | 1.79 m/s, 349° | - | - |
| 1777983038 | 18.89° C | 65% | 996.9 hPa | 0 mm | 2.24 m/s, 328° | - | - |
| 1777982435 | 18.33° C | 65% | 997 hPa | 0 mm | 1.34 m/s, 339° | - | - |
| 1777981833 | 18.33° C | 67% | 997.1 hPa | 0 mm | 1.34 m/s, 346° | - | - |
| 1777981230 | 18.89° C | 67% | 997.2 hPa | 0 mm | 0.89 m/s, 347° | - | - |
| 1777980627 | 18.33° C | 68% | 997 hPa | 0 mm | 1.34 m/s, 349° | - | - |
| 1777980025 | 18.33° C | 66% | 997.2 hPa | 0 mm | 1.34 m/s, 27° | - | - |
| 1777979422 | 18.33° C | 64% | 997.2 hPa | 0 mm | 1.79 m/s, 35° | - | - |
| 1777978819 | 18.89° C | 65% | 997.2 hPa | 0 mm | 0.89 m/s, 6° | - | - |
| 1777978217 | 18.89° C | 68% | 997.3 hPa | 0 mm | 0.89 m/s, 12° | - | - |
| 1777977674 | 17.78° C | 74% | 997.4 hPa | 0 mm | 1.34 m/s, 8° | - | - |
| 1777977071 | 17.22° C | 76% | 997.4 hPa | 0 mm | 1.79 m/s, 329° | - | - |
| 1777976468 | 17.22° C | 78% | 997.4 hPa | 0 mm | 1.34 m/s, 349° | - | - |
| 1777975866 | 16.67° C | 78% | 997.5 hPa | 0 mm | 0.89 m/s, 333° | - | - |
| 1777975263 | 16.67° C | 79% | 997.5 hPa | 0 mm | 1.34 m/s, 330° | - | - |
| 1777974661 | 16.67° C | 79% | 997.7 hPa | 0 mm | 0.89 m/s, 333° | - | - |
| 1777974058 | 16.67° C | 79% | 997.6 hPa | 0 mm | 0.89 m/s, 349° | - | - |
| 1777973455 | 16.67° C | 79% | 997.6 hPa | 0 mm | 0.45 m/s, 0° | - | - |
| 1777972853 | 16.67° C | 78% | 997.7 hPa | 0 mm | 1.34 m/s, 334° | - | - |
* Rain latest hour (hover to see other rain measurements)
** Current wind speed in m/s (hover to see current wind gust speed)